Flight Track Log - Related Links

Times and Time Zones

All times are in EDT time to prevent confusion due to time zone crossing. See the SWA397 flight status page for this flight to view local times or setup timezone preferences in your user account.

Time Position Orientation Groundspeed Altitude Reporting Facility
EDT Latitude Longitude Course Direction KTS MPH feet Rate Location/Type
Thu 03:10:31 PM 36.0760 -115.1570 269° West 182 209 2,500  Level FlightAware ADS-B
Thu 03:11:51 PM 36.0690 -115.2460 264° West 227 261 4,900 1,592 Climbing FlightAware ADS-B
Thu 03:12:09 PM 36.0550 -115.2630 224° Southwest 251 289 5,100 1,400 Climbing FlightAware ADS-B
Thu 03:12:21 PM 36.0420 -115.2690 200° South 256 295 5,600 2,348 Climbing FlightAware ADS-B
Thu 03:12:32 PM 36.0300 -115.2730 195° South 255 293 6,000 2,211 Climbing FlightAware ADS-B
Thu 03:12:59 PM 35.9990 -115.2870 200° South 247 284 7,000 1,607 Climbing FlightAware ADS-B
Thu 03:13:28 PM 35.9680 -115.2990 197° South 264 304 7,500 1,355 Climbing FlightAware ADS-B
Thu 03:14:01 PM 35.9330 -115.2730 149° Southeast 287 330 8,400 1,867 Climbing FlightAware ADS-B
Thu 03:14:13 PM 35.9290 -115.2540 105° East 292 336 8,900 2,118 Climbing FlightAware ADS-B
Thu 03:15:09 PM 35.9290 -115.1550 90° East 327 376 10,800 1,732 Climbing FlightAware ADS-B
Thu 03:15:50 PM 35.9290 -115.0760 90° East 362 417 11,700 1,737 Climbing FlightAware ADS-B
Thu 03:16:25 PM 35.9290 -115.0050 90° East 371 427 13,000 2,475 Climbing FlightAware ADS-B
Thu 03:17:10 PM 35.9290 -114.9050 90° East 376 433 15,000 2,519 Climbing FlightAware ADS-B
Thu 03:17:46 PM 35.9290 -114.8280 90° East 380 437 16,400 2,231 Climbing FlightAware ADS-B
Thu 03:18:28 PM 35.9290 -114.7400 90° East 386 444 17,900 1,977 Climbing FlightAware ADS-B
Thu 03:19:14 PM 35.9290 -114.6330 90° East 401 461 19,300 1,705 Climbing FlightAware ADS-B
Thu 03:19:56 PM 35.9280 -114.5350 91° East 414 476 20,400 1,714 Climbing FlightAware ADS-B
Thu 03:20:38 PM 35.9280 -114.4380 90° East 418 481 21,700 1,807 Climbing FlightAware ADS-B
Thu 03:21:19 PM 35.9270 -114.3380 91° East 422 486 22,900 1,704 Climbing FlightAware ADS-B
Thu 03:21:59 PM 35.9260 -114.2420 91° East 425 489 24,000 1,532 Climbing FlightAware ADS-B
Thu 03:22:53 PM 35.9250 -114.1120 91° East 434 499 25,300 1,320 Climbing FlightAware ADS-B
Thu 03:23:39 PM 35.9240 -113.9940 91° East 444 511 26,200 1,200 Climbing FlightAware ADS-B
Thu 03:24:23 PM 35.9240 -113.8850 90° East 450 518 27,100 1,154 Climbing FlightAware ADS-B
Thu 03:24:57 PM 35.9230 -113.7940 91° East 456 525 27,700 1,083 Climbing FlightAware ADS-B
Thu 03:25:35 PM 35.9210 -113.6980 91° East 461 531 28,400 1,008 Climbing FlightAware ADS-B
Thu 03:26:56 PM 35.8710 -113.4920 107° East 474 545 29,700 1,039 Climbing FlightAware ADS-B
Thu 03:27:42 PM 35.8390 -113.3800 109° East 472 543 30,600 1,379 Climbing FlightAware ADS-B
Thu 03:28:23 PM 35.8080 -113.2710 109° East 465 535 31,700 1,590 Climbing FlightAware ADS-B
Thu 03:29:05 PM 35.7780 -113.1660 109° East 457 526 32,800 1,333 Climbing FlightAware ADS-B
Thu 03:29:53 PM 35.7440 -113.0500 110° East 455 524 33,700 1,067 Climbing FlightAware ADS-B
Thu 03:30:35 PM 35.7140 -112.9460 110° East 453 521 34,400 857 Climbing FlightAware ADS-B
Thu 03:31:24 PM 35.6800 -112.8310 110° East 452 520 35,000 404 Climbing FlightAware ADS-B
Thu 03:32:04 PM 35.6510 -112.7330 110° East 450 518 35,000  Level FlightAware ADS-B
Thu 03:32:46 PM 35.6210 -112.6310 110° East 448 516 35,000  Level FlightAware ADS-B
Thu 03:33:28 PM 35.5920 -112.5310 110° East 446 513 35,000  Level FlightAware ADS-B
Thu 03:34:12 PM 35.5610 -112.4260 110° East 444 511 35,000  Level FlightAware ADS-B
Thu 03:34:54 PM 35.5310 -112.3270 110° East 443 510 35,000  Level FlightAware ADS-B
Thu 03:35:50 PM 35.4920 -112.1950 110° East 442 509 35,000  Level FlightAware ADS-B
Thu 03:36:32 PM 35.4620 -112.0970 111° Southeast 442 509 35,000  Level FlightAware ADS-B
Thu 03:37:12 PM 35.4340 -112.0040 110° East 442 509 35,000  Level FlightAware ADS-B
Thu 03:37:54 PM 35.4040 -111.9040 110° East 442 509 35,000  Level FlightAware ADS-B
Thu 03:38:36 PM 35.3740 -111.8060 111° Southeast 443 510 35,000  Level FlightAware ADS-B
Thu 03:39:16 PM 35.3450 -111.7110 110° East 443 510 35,000  Level FlightAware ADS-B
Thu 03:39:54 PM 35.3180 -111.6220 110° East 445 512 35,000  Level FlightAware ADS-B
Thu 03:40:32 PM 35.2910 -111.5330 110° East 444 511 35,000  Level FlightAware ADS-B
Thu 03:41:16 PM 35.2600 -111.4330 111° Southeast 443 510 35,000  Level FlightAware ADS-B
Thu 03:42:00 PM 35.2270 -111.3260 111° Southeast 444 511 35,000  Level FlightAware ADS-B
Thu 03:42:38 PM 35.2000 -111.2370 110° East 445 512 35,000  Level FlightAware ADS-B
Thu 03:43:26 PM 35.1640 -111.1230 111° Southeast 448 516 35,000  Level FlightAware ADS-B
Thu 03:44:06 PM 35.1350 -111.0310 111° Southeast 448 516 35,000  Level FlightAware ADS-B
Thu 03:44:42 PM 35.1090 -110.9450 110° East 448 516 35,000  Level FlightAware ADS-B
Thu 03:46:45 PM 35.0010 -110.7060 119° Southeast 455 524 35,000  Level FlightAware ADS-B
Thu 03:47:26 PM 34.9270 -110.5960 129° Southeast 454 522 35,000  Level FlightAware ADS-B
Thu 03:48:10 PM 34.8670 -110.5080 130° Southeast 455 524 35,000  Level FlightAware ADS-B
Thu 03:48:54 PM 34.8090 -110.4220 129° Southeast 453 521 35,000  Level FlightAware ADS-B
Thu 03:49:37 PM 34.7530 -110.3410 130° Southeast 450 518 35,000  Level FlightAware ADS-B
Thu 03:50:14 PM 34.7030 -110.2670 129° Southeast 449 517 35,000  Level FlightAware ADS-B
Thu 03:50:54 PM 34.6490 -110.1890 130° Southeast 448 516 35,000  Level FlightAware ADS-B
Thu 03:51:34 PM 34.5990 -110.1150 129° Southeast 447 514 35,000  Level FlightAware ADS-B
Thu 03:52:14 PM 34.5430 -110.0340 130° Southeast 445 512 35,000  Level FlightAware ADS-B
Thu 03:52:58 PM 34.4850 -109.9500 130° Southeast 444 511 35,000  Level FlightAware ADS-B
Thu 03:53:42 PM 34.4280 -109.8670 130° Southeast 444 511 35,000  Level FlightAware ADS-B
Thu 03:54:34 PM 34.3640 -109.7750 130° Southeast 444 511 35,000  Level FlightAware ADS-B
Thu 03:57:01 PM 34.1940 -109.5310 130° Southeast 444 511 35,000  Level FlightAware ADS-B
Thu 03:57:40 PM 34.1500 -109.4680 130° Southeast 444 511 35,000  Level FlightAware ADS-B
Thu 03:58:28 PM 34.0960 -109.3910 130° Southeast 444 511 35,000  Level FlightAware ADS-B
Thu 03:59:05 PM 34.0550 -109.3310 130° Southeast 444 511 35,000  Level FlightAware ADS-B
Thu 03:59:52 PM 34.0020 -109.2550 130° Southeast 444 511 35,000  Level FlightAware ADS-B
Thu 04:00:28 PM 33.9620 -109.1970 130° Southeast 444 511 35,000  Level FlightAware ADS-B
Thu 04:01:16 PM 33.9080 -109.1200 130° Southeast 444 511 35,000  Level FlightAware ADS-B
Thu 04:01:53 PM 33.8660 -109.0600 130° Southeast 444 511 35,000  Level FlightAware ADS-B
Thu 04:02:39 PM 33.8150 -108.9860 130° Southeast 444 511 35,000  Level FlightAware ADS-B
Thu 04:03:15 PM 33.7740 -108.9280 130° Southeast 444 511 35,000  Level FlightAware ADS-B
Thu 04:04:03 PM 33.7200 -108.8510 130° Southeast 444 511 35,000  Level FlightAware ADS-B
Thu 04:04:39 PM 33.6800 -108.7930 130° Southeast 444 511 35,000  Level FlightAware ADS-B
Thu 04:05:27 PM 33.6260 -108.7160 130° Southeast 444 511 35,000  Level FlightAware ADS-B
Thu 04:06:03 PM 33.5860 -108.6580 130° Southeast 444 511 35,000  Level FlightAware ADS-B
Thu 04:06:49 PM 33.4114 -108.4292 130° Southeast 426 490 35,000  Level Albuquerque Center
Thu 04:07:51 PM 33.3336 -108.3197 130° Southeast 428 493 35,000  Level Albuquerque Center
Thu 04:08:53 PM 33.2544 -108.2114 131° Southeast 431 496 35,000  Level Albuquerque Center
Thu 04:09:54 PM 33.1744 -108.1017 131° Southeast 429 494 35,000  Level Albuquerque Center
Thu 04:10:56 PM 33.0964 -107.9944 131° Southeast 429 494 35,000  Level Albuquerque Center
Thu 04:11:58 PM 33.0031 -107.8678 131° Southeast 426 490 35,000  Level Albuquerque Center
Thu 04:13:00 PM 32.9247 -107.7628 132° Southeast 425 489 35,000  Level Albuquerque Center
Thu 04:14:01 PM 32.8467 -107.6561 131° Southeast 427 491 35,000  Level Albuquerque Center
Thu 04:15:03 PM 32.7692 -107.5514 131° Southeast 425 489 35,000  Level Albuquerque Center
Thu 04:16:05 PM 32.6922 -107.4475 131° Southeast 425 489 35,000  Level Albuquerque Center
Thu 04:17:07 PM 32.6147 -107.3406 131° Southeast 427 491 35,000  Level Albuquerque Center
Thu 04:18:08 PM 32.5203 -107.2133 131° Southeast 428 493 35,000  Level Albuquerque Center
Thu 04:19:10 PM 32.4533 -107.1264 132° Southeast 427 491 35,000  Level Albuquerque Center
Thu 04:20:12 PM 32.3597 -106.9964 130° Southeast 430 495 35,000  Level Albuquerque Center
Thu 04:21:14 PM 32.2800 -106.8908 132° Southeast 430 495 35,000  Level Albuquerque Center
Thu 04:22:15 PM 32.2117 -106.8003 132° Southeast 428 493 35,000  Level Albuquerque Center
Thu 04:23:17 PM 32.1167 -106.6750 132° Southeast 428 493 35,000  Level Albuquerque Center
Thu 04:24:19 PM 32.0375 -106.5714 132° Southeast 426 490 35,000  Level Albuquerque Center
Thu 04:25:21 PM 31.9581 -106.4681 132° Southeast 426 490 35,000  Level Albuquerque Center
Thu 04:26:23 PM 31.8825 -106.3703 132° Southeast 436 502 35,000  Level Albuquerque Center
Thu 04:27:25 PM 31.8131 -106.2197 118° Southeast 472 543 35,000  Level Albuquerque Center
Thu 04:28:26 PM 31.7919 -106.0806 100° East 439 505 35,000  Level Albuquerque Center
Thu 04:29:28 PM 31.7742 -105.9375 98° East 443 510 35,000 300 Level Albuquerque Center
Thu 04:35:06 PM 31.6730 -105.1080 98° East 456 525 37,000 313 Climbing FlightAware ADS-B
Thu 04:35:52 PM 31.6590 -104.9960 98° East 456 525 37,000  Level FlightAware ADS-B
Thu 04:36:35 PM 31.6470 -104.9010 98° East 456 525 37,000  Level FlightAware ADS-B
Thu 04:37:10 PM 31.6340 -104.8030 99° East 460 529 37,000  Level FlightAware ADS-B
Thu 04:38:00 PM 31.6180 -104.6790 99° East 465 535 37,000  Level FlightAware ADS-B
Thu 04:38:36 PM 31.6060 -104.5880 99° East 469 540 37,000  Level FlightAware ADS-B
Thu 04:39:25 PM 31.5900 -104.4700 99° East 470 541 37,000  Level FlightAware ADS-B
Thu 04:42:51 PM 31.5350 -104.0170 98° East 472 543 37,000  Level FlightAware ADS-B
Thu 04:43:36 PM 31.5230 -103.9200 98° East 472 543 37,000  Level FlightAware ADS-B
Thu 04:44:30 PM 31.5100 -103.8030 97° East 472 543 37,000  Level FlightAware ADS-B
Thu 04:45:34 PM 31.4930 -103.6650 98° East 472 543 37,000  Level FlightAware ADS-B
Thu 04:46:11 PM 31.4830 -103.5850 98° East 472 543 37,000  Level FlightAware ADS-B
Thu 04:46:59 PM 31.4710 -103.4820 98° East 472 543 37,000  Level FlightAware ADS-B
Thu 04:47:35 PM 31.4620 -103.4040 98° East 472 543 37,000  Level FlightAware ADS-B
Thu 04:48:23 PM 31.4490 -103.3010 98° East 472 543 37,000  Level FlightAware ADS-B
Thu 04:48:59 PM 31.4400 -103.2230 98° East 472 543 37,000  Level FlightAware ADS-B
Thu 04:49:47 PM 31.4280 -103.1200 98° East 472 543 37,000  Level FlightAware ADS-B
Thu 04:51:09 PM 31.3600 -102.6960 101° East 462 532 37,000  Level FlightAware ADS-B
Thu 04:51:45 PM 31.3480 -102.6040 99° East 462 532 37,000  Level FlightAware ADS-B
Thu 04:52:25 PM 31.3350 -102.5060 99° East 462 532 37,000  Level FlightAware ADS-B
Thu 04:53:11 PM 31.3200 -102.3930 99° East 464 534 37,000  Level FlightAware ADS-B
Thu 04:53:49 PM 31.3080 -102.3000 99° East 465 535 37,000  Level FlightAware ADS-B
Thu 04:54:27 PM 31.2960 -102.2060 98° East 467 537 37,000  Level FlightAware ADS-B
Thu 04:55:07 PM 31.2820 -102.1050 99° East 468 539 37,000  Level FlightAware ADS-B
Thu 04:55:50 PM 31.2680 -101.9980 99° East 469 540 37,000  Level FlightAware ADS-B
Thu 04:56:26 PM 31.2560 -101.9070 99° East 470 541 37,000  Level FlightAware ADS-B
Thu 04:57:09 PM 31.2420 -101.8000 99° East 469 540 37,000  Level FlightAware ADS-B
Thu 04:57:49 PM 31.2280 -101.6990 99° East 468 539 37,000  Level FlightAware ADS-B
Thu 04:58:29 PM 31.2140 -101.5980 99° East 466 536 37,000  Level FlightAware ADS-B
Thu 04:59:13 PM 31.1990 -101.4900 99° East 465 535 37,000  Level FlightAware ADS-B
Thu 04:59:54 PM 31.1860 -101.3910 99° East 464 534 37,000  Level FlightAware ADS-B
Thu 05:00:35 PM 31.1710 -101.2870 100° East 465 535 37,000  Level FlightAware ADS-B
Thu 05:01:15 PM 31.1540 -101.1900 102° East 467 537 37,000  Level FlightAware ADS-B
Thu 05:01:52 PM 31.1350 -101.1000 104° East 467 537 37,000  Level FlightAware ADS-B
Thu 05:02:37 PM 31.1100 -100.9880 105° East 465 535 37,000  Level FlightAware ADS-B
Thu 05:03:17 PM 31.0960 -100.8900 99° East 462 532 37,000  Level FlightAware ADS-B
Thu 05:03:53 PM 31.0880 -100.8010 96° East 462 532 37,000  Level FlightAware ADS-B
Thu 05:04:37 PM 31.0810 -100.6930 94° East 460 529 37,000  Level FlightAware ADS-B
Thu 05:05:17 PM 31.0720 -100.5930 96° East 456 525 37,000  Level FlightAware ADS-B
Thu 05:05:57 PM 31.0580 -100.4980 100° East 457 526 37,000  Level FlightAware ADS-B
Thu 05:06:37 PM 31.0440 -100.4010 100° East 459 528 37,000  Level FlightAware ADS-B
Thu 05:07:19 PM 31.0290 -100.2970 100° East 459 528 37,000  Level FlightAware ADS-B
Thu 05:08:07 PM 31.0120 -100.1810 100° East 458 527 37,000  Level FlightAware ADS-B
Thu 05:08:39 PM 31.0000 -100.1040 100° East 456 525 37,000  Level FlightAware ADS-B
Thu 05:09:23 PM 30.9780 -99.9990 104° East 457 526 37,000  Level FlightAware ADS-B
Thu 05:10:03 PM 30.9520 -99.9060 108° East 460 529 37,000  Level FlightAware ADS-B
Thu 05:10:39 PM 30.9580 -99.8210 85° East 457 526 37,000  Level FlightAware ADS-B
Thu 05:12:06 PM 30.9900 -99.6160 80° East 456 525 37,000  Level FlightAware ADS-B
Thu 05:12:47 PM 30.9790 -99.5110 97° East 458 527 37,000  Level FlightAware ADS-B
Thu 05:13:29 PM 30.9670 -99.4100 98° East 457 526 37,000  Level FlightAware ADS-B
Thu 05:14:11 PM 30.9540 -99.3110 99° East 459 528 37,000  Level FlightAware ADS-B
Thu 05:14:54 PM 30.9390 -99.1980 99° East 459 528 37,000  Level FlightAware ADS-B
Thu 05:15:38 PM 30.9260 -99.0920 98° East 458 527 37,000  Level FlightAware ADS-B
Thu 05:16:16 PM 30.9130 -98.9980 99° East 458 527 37,000  Level FlightAware ADS-B
Thu 05:16:54 PM 30.9010 -98.9060 99° East 457 526 37,000  Level FlightAware ADS-B
Thu 05:17:34 PM 30.8880 -98.8080 99° East 457 526 37,000  Level FlightAware ADS-B
Thu 05:18:14 PM 30.8750 -98.7130 99° East 457 526 37,000  Level FlightAware ADS-B
Thu 05:19:00 PM 30.8600 -98.6010 99° East 457 526 37,000  Level FlightAware ADS-B
Thu 05:19:40 PM 30.8470 -98.5040 99° East 456 525 37,000  Level FlightAware ADS-B
Thu 05:19:52 PM 30.8430 -98.4750 99° East 456 525 37,000  Level FlightAware ADS-B
Thu 05:22:15 PM 30.8000 -98.1620 99° East 457 526 37,000  Level FlightAware ADS-B
Thu 05:24:29 PM 30.7500 -97.8010 99° East 458 527 37,000 -241 Level FlightAware ADS-B
Thu 05:25:09 PM 30.7360 -97.7070 100° East 457 526 36,300 -1,000 Descending FlightAware ADS-B
Thu 05:25:53 PM 30.7210 -97.5980 99° East 458 527 35,600 -947 Descending FlightAware ADS-B
Thu 05:26:25 PM 30.7100 -97.5200 99° East 459 528 35,100 -1,615 Descending FlightAware ADS-B
Thu 05:27:11 PM 30.6940 -97.4100 100° East 460 529 33,500 -2,930 Descending FlightAware ADS-B
Thu 05:27:51 PM 30.6670 -97.3130 108° East 477 549 30,900 -3,316 Descending FlightAware ADS-B
Thu 05:28:27 PM 30.6420 -97.2280 109° East 469 540 29,300 -2,640 Descending FlightAware ADS-B
Thu 05:29:06 PM 30.6140 -97.1360 109° East 461 531 27,600 -2,634 Descending FlightAware ADS-B
Thu 05:29:49 PM 30.5840 -97.0370 109° East 452 520 25,700 -2,593 Descending FlightAware ADS-B
Thu 05:30:27 PM 30.5550 -96.9510 111° Southeast 444 511 24,100 -2,071 Descending FlightAware ADS-B
Thu 05:31:13 PM 30.5120 -96.8590 118° Southeast 418 481 22,800 -1,841 Descending FlightAware ADS-B
Thu 05:31:55 PM 30.4740 -96.7770 118° Southeast 406 467 21,400 -1,929 Descending FlightAware ADS-B
Thu 05:32:37 PM 30.4370 -96.6970 118° Southeast 406 467 20,100 -1,357 Descending FlightAware ADS-B
Thu 05:33:19 PM 30.3990 -96.6160 119° Southeast 420 483 19,500 -1,605 Descending FlightAware ADS-B
Thu 05:34:03 PM 30.3580 -96.5280 118° Southeast 411 473 17,800 -2,357 Descending FlightAware ADS-B
Thu 05:34:43 PM 30.3240 -96.4550 118° Southeast 403 464 16,200 -2,500 Descending FlightAware ADS-B
Thu 05:35:27 PM 30.2830 -96.3700 119° Southeast 392 451 14,300 -2,471 Descending FlightAware ADS-B
Thu 05:36:08 PM 30.2490 -96.2970 118° Southeast 381 438 12,700 -1,244 Descending FlightAware ADS-B
Thu 05:36:49 PM 30.2200 -96.2340 118° Southeast 381 438 12,600 -1,688 Descending FlightAware ADS-B
Thu 05:37:12 PM 30.1850 -96.1960 137° Southeast 348 400 10,900 -1,478 Descending FlightAware ADS-B
Thu 05:37:58 PM 30.1210 -96.1600 154° Southeast 322 371 10,900  Level FlightAware ADS-B
Thu 05:38:40 PM 30.0630 -96.1300 156° South 321 369 10,900  Level FlightAware ADS-B
Thu 05:39:24 PM 30.0050 -96.0990 155° Southeast 320 368 10,900  Level FlightAware ADS-B
Thu 05:39:40 PM 29.9860 -96.0820 142° Southeast 320 368 10,900  Level FlightAware ADS-B
Thu 05:40:24 PM 29.9400 -96.0310 136° Southeast 292 336 10,900 -341 Level FlightAware ADS-B
Thu 05:41:08 PM 29.8980 -95.9830 135° Southeast 287 330 10,400 -1,000 Descending FlightAware ADS-B
Thu 05:41:36 PM 29.8720 -95.9530 135° Southeast 288 331 9,700 -1,364 Descending FlightAware ADS-B
Thu 05:41:52 PM 29.8570 -95.9350 134° Southeast 285 328 9,400 -1,108 Descending FlightAware ADS-B
Thu 05:42:41 PM 29.8120 -95.8840 135° Southeast 280 322 8,500 -1,013 Descending FlightAware ADS-B
Thu 05:43:09 PM 29.7870 -95.8550 135° Southeast 281 323 8,100 -1,000 Descending FlightAware ADS-B
Thu 05:43:35 PM 29.7630 -95.8260 134° Southeast 280 322 7,600 -1,222 Descending FlightAware ADS-B
Thu 05:44:03 PM 29.7370 -95.7960 135° Southeast 280 322 7,000 -1,102 Descending FlightAware ADS-B
Thu 05:44:24 PM 29.7180 -95.7740 135° Southeast 278 320 6,700 -1,000 Descending FlightAware ADS-B
Thu 05:44:51 PM 29.6940 -95.7460 135° Southeast 275 316 6,200 -873 Descending FlightAware ADS-B
Thu 05:45:19 PM 29.6680 -95.7170 136° Southeast 261 300 5,900 -409 Descending FlightAware ADS-B
Thu 05:45:35 PM 29.6550 -95.7020 135° Southeast 246 283 5,900  Level FlightAware ADS-B
Thu 05:45:59 PM 29.6360 -95.6810 136° Southeast 231 266 5,900  Level FlightAware ADS-B
Thu 05:46:18 PM 29.6250 -95.6630 125° Southeast 226 260 5,900  Level FlightAware ADS-B
Thu 05:46:27 PM 29.6230 -95.6530 103° East 225 259 5,900 -514 Level FlightAware ADS-B
Thu 05:46:53 PM 29.6340 -95.6240 66° East 228 262 5,600 -783 Descending FlightAware ADS-B
Thu 05:47:13 PM 29.6480 -95.6060 48° Northeast 226 260 5,300 -1,000 Descending FlightAware ADS-B
Thu 05:47:41 PM 29.6670 -95.5810 49° Northeast 225 259 4,800 -1,111 Descending FlightAware ADS-B
Thu 05:48:07 PM 29.6790 -95.5530 64° Northeast 225 259 4,300 -1,102 Descending FlightAware ADS-B
Thu 05:48:30 PM 29.6830 -95.5260 80° East 222 255 3,900 -915 Descending FlightAware ADS-B
Thu 05:49:06 PM 29.6920 -95.4850 76° East 212 244 3,400 -750 Descending FlightAware ADS-B
Thu 05:49:26 PM 29.6960 -95.4640 78° East 200 230 3,200 -563 Descending FlightAware ADS-B
Thu 05:49:38 PM 29.6990 -95.4520 74° East 193 222 3,100 -682 Descending FlightAware ADS-B
Thu 05:50:10 PM 29.7090 -95.4240 68° East 184 212 2,700 -818 Descending FlightAware ADS-B
Thu 05:50:22 PM 29.7200 -95.4180 25° Northeast 186 214 2,500 -889 Descending FlightAware ADS-B
Thu 05:50:37 PM 29.7310 -95.4130 22° Northeast 181 208 2,300 -889 Descending FlightAware ADS-B
Thu 05:50:49 PM 29.7380 -95.4050 45° Northeast 170 196 2,100 -600 Descending FlightAware ADS-B
Thu 05:50:57 PM 29.7390 -95.3970 82° East 170 196 2,100 -214 Level FlightAware ADS-B
Thu 05:51:17 PM 29.7330 -95.3810 113° Southeast 171 197 2,000 -375 Descending FlightAware ADS-B
Thu 05:51:45 PM 29.7180 -95.3650 137° Southeast 168 193 1,800 -450 Descending FlightAware ADS-B
Thu 05:51:57 PM 29.7110 -95.3570 135° Southeast 166 191 1,700 -714 Descending FlightAware ADS-B
Thu 05:52:27 PM 29.6960 -95.3390 134° Southeast 159 183 1,300 -842 Descending FlightAware ADS-B
Thu 05:52:54 PM 29.6820 -95.3220 133° Southeast 149 171 900 -873 Descending FlightAware ADS-B
Thu 05:53:22 PM 29.6680 -95.3060 135° Southeast 151 174 500 -818 Descending FlightAware ADS-B
Thu 05:53:38 PM 29.6600 -95.2970 136° Southeast 152 175 300 -750 Descending FlightAware ADS-B
Thu 05:54:01 PM 29.6500 -95.2840 132° Southeast 149 171 -783 Descending FlightAware ADS-B
Thu 05:54:28 PM 29.6390 -95.2710 134° Southeast 149 171  Level FlightAware ADS-B
Thu 06:02:00 PM 29.6333 -95.2667 North  Level FlightAware Approximate

Login

Don't have an account? Register now (free) for customized features, flight alerts, and more!